createdAt,value
2018-05-28T00:02:14.583Z,19.41
2018-05-28T00:04:42.231Z,19.40
2018-05-28T00:07:09.851Z,19.41
2018-05-28T00:09:37.498Z,19.42
2018-05-28T00:12:05.184Z,19.40
2018-05-28T00:14:32.847Z,19.40
2018-05-28T00:17:00.472Z,19.39
2018-05-28T00:19:28.125Z,19.39
2018-05-28T00:21:55.742Z,19.38
2018-05-28T00:24:23.382Z,19.38
2018-05-28T00:26:51.003Z,19.37
2018-05-28T00:29:18.647Z,19.36
2018-05-28T00:31:46.267Z,19.35
2018-05-28T00:34:13.936Z,19.33
2018-05-28T00:36:41.587Z,19.32
2018-05-28T00:39:09.258Z,19.30
2018-05-28T00:41:36.912Z,19.28
2018-05-28T00:44:04.592Z,19.27
2018-05-28T00:46:32.212Z,19.25
2018-05-28T00:48:59.859Z,19.22
2018-05-28T00:51:27.479Z,19.19
2018-05-28T00:53:55.124Z,19.17
2018-05-28T00:56:22.795Z,19.14
2018-05-28T00:58:50.442Z,19.12
2018-05-28T01:01:18.079Z,19.11
2018-05-28T01:03:45.739Z,19.09
2018-05-28T01:06:13.354Z,19.09
2018-05-28T01:08:40.975Z,19.08
2018-05-28T01:11:08.611Z,19.06
2018-05-28T01:13:36.235Z,19.06
2018-05-28T01:16:03.879Z,19.04
2018-05-28T01:18:31.551Z,19.02
2018-05-28T01:20:59.216Z,19.02
2018-05-28T01:23:26.865Z,19.01
2018-05-28T01:25:54.506Z,18.99
2018-05-28T01:28:22.135Z,18.99
2018-05-28T01:30:49.781Z,18.95
2018-05-28T01:33:17.403Z,18.94
2018-05-28T01:35:45.087Z,18.92
2018-05-28T01:38:12.747Z,18.87
2018-05-28T01:40:40.397Z,18.82
2018-05-28T01:43:08.015Z,18.79
2018-05-28T01:45:35.660Z,18.76
2018-05-28T01:48:03.297Z,18.72
2018-05-28T01:50:30.965Z,18.67
2018-05-28T01:52:58.628Z,18.62
2018-05-28T01:55:26.273Z,18.58
2018-05-28T01:57:53.887Z,18.55
2018-05-28T02:00:21.532Z,18.52
2018-05-28T02:02:49.151Z,18.47
2018-05-28T02:05:16.827Z,18.42
2018-05-28T02:07:44.436Z,18.37
2018-05-28T02:10:12.075Z,18.33
2018-05-28T02:12:39.691Z,18.30
2018-05-28T02:15:07.374Z,18.27
2018-05-28T02:17:34.993Z,18.22
2018-05-28T02:20:02.648Z,18.20
2018-05-28T02:22:30.267Z,18.16
2018-05-28T02:24:57.882Z,18.14
2018-05-28T02:27:25.522Z,18.12
2018-05-28T02:29:53.143Z,18.09
2018-05-28T02:32:20.778Z,18.05
2018-05-28T02:34:48.446Z,18.02
2018-05-28T02:37:16.138Z,18.02
2018-05-28T02:39:43.755Z,18.00
2018-05-28T02:42:11.390Z,17.99
2018-05-28T02:44:39.004Z,17.98
2018-05-28T02:47:06.693Z,17.98
2018-05-28T02:49:34.309Z,17.96
2018-05-28T02:52:01.951Z,17.94
2018-05-28T02:54:29.563Z,17.91
2018-05-28T02:56:57.208Z,17.89
2018-05-28T02:59:24.826Z,17.88
2018-05-28T03:01:52.474Z,17.88
2018-05-28T03:04:20.110Z,17.87
2018-05-28T03:06:47.755Z,17.85
2018-05-28T03:09:15.367Z,17.83
2018-05-28T03:11:43.095Z,17.80
2018-05-28T03:14:11.267Z,17.79
2018-05-28T03:16:38.929Z,17.78
2018-05-28T03:19:06.604Z,17.77
2018-05-28T03:21:34.237Z,17.73
2018-05-28T03:24:01.922Z,17.69
2018-05-28T03:26:29.558Z,17.66
2018-05-28T03:28:57.241Z,17.64
2018-05-28T03:31:24.912Z,17.64
2018-05-28T03:33:52.527Z,17.65
2018-05-28T03:36:20.191Z,17.67
2018-05-28T03:38:47.822Z,17.70
2018-05-28T03:41:15.435Z,17.74
2018-05-28T03:43:43.114Z,17.77
2018-05-28T03:46:10.722Z,17.79
2018-05-28T03:48:38.357Z,17.81
2018-05-28T03:51:06.002Z,17.83
2018-05-28T03:53:33.667Z,17.86
2018-05-28T03:56:01.322Z,17.91
2018-05-28T03:58:28.960Z,18.06
2018-05-28T04:01:09.863Z,18.21
2018-05-28T04:03:49.200Z,18.41
2018-05-28T04:06:16.806Z,18.60
2018-05-28T04:08:44.447Z,18.80
2018-05-28T04:11:12.063Z,19.00
2018-05-28T04:13:39.754Z,19.20
2018-05-28T04:16:07.366Z,19.41
2018-05-28T04:18:35.002Z,19.61
2018-05-28T04:21:02.614Z,19.81
2018-05-28T04:23:30.251Z,20.00
2018-05-28T04:25:57.862Z,20.20
2018-05-28T04:28:25.521Z,20.40
2018-05-28T04:30:53.170Z,20.57
2018-05-28T04:33:20.801Z,20.72
2018-05-28T04:35:48.419Z,20.82
2018-05-28T04:38:16.268Z,20.77
2018-05-28T04:40:43.893Z,20.69
2018-05-28T04:43:11.546Z,20.66
2018-05-28T04:45:40.210Z,20.67
2018-05-28T04:48:07.875Z,20.65
2018-05-28T04:50:35.483Z,20.59
2018-05-28T04:53:03.159Z,20.54
2018-05-28T04:55:30.803Z,20.49
2018-05-28T04:57:58.418Z,20.44
2018-05-28T05:00:26.055Z,20.39
2018-05-28T05:02:53.694Z,20.36
2018-05-28T05:05:21.336Z,20.35
2018-05-28T05:07:48.951Z,20.38
2018-05-28T05:10:16.719Z,20.42
2018-05-28T05:12:44.342Z,20.46
2018-05-28T05:15:11.984Z,20.52
2018-05-28T05:17:39.594Z,20.58
2018-05-28T05:20:07.250Z,20.63
2018-05-28T05:22:34.903Z,20.67
2018-05-28T05:25:02.594Z,20.73
2018-05-28T05:27:30.951Z,20.76
2018-05-28T05:29:58.583Z,20.79
2018-05-28T05:32:26.203Z,20.81
2018-05-28T05:34:53.838Z,20.86
2018-05-28T05:37:21.451Z,20.91
2018-05-28T05:39:49.095Z,20.97
2018-05-28T05:42:16.787Z,21.04
2018-05-28T05:44:44.481Z,21.08
2018-05-28T05:47:12.153Z,21.15
2018-05-28T05:49:39.794Z,21.22
2018-05-28T05:52:07.411Z,21.31
2018-05-28T05:54:35.138Z,21.41
2018-05-28T05:57:02.756Z,21.54
2018-05-28T05:59:30.371Z,21.66
2018-05-28T06:01:58.039Z,21.79
2018-05-28T06:04:25.664Z,21.91
2018-05-28T06:06:53.310Z,22.02
2018-05-28T06:09:20.925Z,22.12
2018-05-28T06:11:48.563Z,22.22
2018-05-28T06:14:16.174Z,22.32
2018-05-28T06:16:43.811Z,22.42
2018-05-28T06:19:11.446Z,22.52
2018-05-28T06:21:39.078Z,22.65
2018-05-28T06:24:06.690Z,22.78
2018-05-28T06:26:34.332Z,22.92
2018-05-28T06:29:01.951Z,23.06
2018-05-28T06:31:29.592Z,23.20
2018-05-28T06:33:57.215Z,23.34
2018-05-28T06:36:24.886Z,23.47
2018-05-28T06:38:52.548Z,23.59
2018-05-28T06:41:20.207Z,23.72
2018-05-28T06:43:47.830Z,23.84
2018-05-28T06:46:15.468Z,23.96
2018-05-28T06:48:43.082Z,24.07
2018-05-28T06:51:10.759Z,24.16
2018-05-28T06:53:38.369Z,24.25
2018-05-28T06:56:06.011Z,24.35
2018-05-28T06:58:33.645Z,24.43
2018-05-28T07:01:01.307Z,24.52
2018-05-28T07:03:28.919Z,24.62
2018-05-28T07:05:56.575Z,24.73
2018-05-28T07:08:24.182Z,24.82
2018-05-28T07:10:51.803Z,24.92
2018-05-28T07:13:19.442Z,25.02
2018-05-28T07:15:47.066Z,25.11
2018-05-28T07:18:14.738Z,25.18
2018-05-28T07:20:42.403Z,25.26
2018-05-28T07:23:10.048Z,25.33
2018-05-28T07:25:37.722Z,25.41
2018-05-28T07:28:05.386Z,25.50
2018-05-28T07:30:32.997Z,25.55
2018-05-28T07:33:00.710Z,25.60
2018-05-28T07:35:28.377Z,25.63
2018-05-28T07:37:56.027Z,25.70
2018-05-28T07:40:23.705Z,25.78
2018-05-28T07:42:51.359Z,25.85
2018-05-28T07:45:19.003Z,25.94
2018-05-28T07:47:46.687Z,26.03
2018-05-28T07:50:14.303Z,26.10
2018-05-28T07:52:41.946Z,26.15
2018-05-28T07:55:09.566Z,26.22
2018-05-28T07:57:37.210Z,26.29
2018-05-28T08:00:04.896Z,26.35
2018-05-28T08:02:32.559Z,26.42
2018-05-28T08:05:00.179Z,26.50
2018-05-28T08:07:27.819Z,26.59
2018-05-28T08:09:55.441Z,26.66
2018-05-28T08:12:23.102Z,26.79
2018-05-28T08:14:50.710Z,26.86
2018-05-28T08:17:18.346Z,26.93
2018-05-28T08:19:45.986Z,27.00
2018-05-28T08:22:13.611Z,27.08
2018-05-28T08:24:41.314Z,27.14
2018-05-28T08:27:08.926Z,27.22
2018-05-28T08:29:36.557Z,27.30
2018-05-28T08:32:04.198Z,27.39
2018-05-28T08:34:31.853Z,27.49
2018-05-28T08:36:59.467Z,27.58
2018-05-28T08:39:27.187Z,27.67
2018-05-28T08:41:54.886Z,27.75
2018-05-28T08:44:22.617Z,27.85
2018-05-28T08:46:50.274Z,27.92
2018-05-28T08:49:17.935Z,27.99
2018-05-28T08:51:45.541Z,28.05
2018-05-28T08:54:13.178Z,28.12
2018-05-28T08:56:40.790Z,28.19
2018-05-28T08:59:08.478Z,28.26
2018-05-28T09:01:36.094Z,28.30
2018-05-28T09:04:03.811Z,28.36
2018-05-28T09:06:31.465Z,28.42
2018-05-28T09:08:59.098Z,28.49
2018-05-28T09:11:26.998Z,28.53
2018-05-28T09:13:54.562Z,28.56
2018-05-28T09:16:22.179Z,28.61
2018-05-28T09:18:49.890Z,28.65
2018-05-28T09:21:17.511Z,28.70
2018-05-28T09:23:45.211Z,28.78
2018-05-28T09:26:12.832Z,28.84
2018-05-28T09:28:40.538Z,28.91
2018-05-28T09:31:08.151Z,28.99
2018-05-28T09:33:35.803Z,29.05
2018-05-28T09:36:04.463Z,29.09
2018-05-28T09:38:32.074Z,29.15
2018-05-28T09:40:59.719Z,29.19
2018-05-28T09:43:27.339Z,29.22
2018-05-28T09:45:54.974Z,29.26
2018-05-28T09:48:22.659Z,29.33
2018-05-28T09:50:50.295Z,29.40
2018-05-28T09:53:17.910Z,29.48
2018-05-28T09:55:45.547Z,29.54
2018-05-28T09:58:13.159Z,29.62
2018-05-28T10:00:40.790Z,29.70
2018-05-28T10:03:08.402Z,29.79
2018-05-28T10:05:36.050Z,29.87
2018-05-28T10:08:03.663Z,29.94
2018-05-28T10:10:31.295Z,29.99
2018-05-28T10:12:58.985Z,30.04
2018-05-28T10:15:26.635Z,30.08
2018-05-28T10:17:54.294Z,30.12
2018-05-28T10:20:21.930Z,30.13
2018-05-28T10:22:49.649Z,30.17
2018-05-28T10:25:17.389Z,30.23
2018-05-28T10:27:45.009Z,30.32
2018-05-28T10:30:12.647Z,30.40
2018-05-28T10:32:40.365Z,30.50
2018-05-28T10:35:08.454Z,30.56
2018-05-28T10:37:36.066Z,30.61
2018-05-28T10:40:03.771Z,30.61
2018-05-28T10:42:31.411Z,30.62
2018-05-28T10:44:59.085Z,30.65
2018-05-28T10:47:26.727Z,30.67
2018-05-28T10:49:54.357Z,30.74
2018-05-28T10:52:22.102Z,30.78
2018-05-28T10:54:49.741Z,30.81
2018-05-28T10:57:17.407Z,30.84
2018-05-28T10:59:45.017Z,30.86
2018-05-28T11:02:12.653Z,30.89
2018-05-28T11:04:40.267Z,30.96
2018-05-28T11:07:07.906Z,30.99
2018-05-28T11:09:35.522Z,31.03
2018-05-28T11:12:03.280Z,31.08
2018-05-28T11:14:30.932Z,31.12
2018-05-28T11:16:58.605Z,31.17
2018-05-28T11:19:26.267Z,31.21
2018-05-28T11:21:53.909Z,31.24
2018-05-28T11:24:21.517Z,31.27
2018-05-28T11:26:49.158Z,31.25
2018-05-28T11:29:16.770Z,31.25
2018-05-28T11:31:44.492Z,31.26
2018-05-28T11:34:12.106Z,31.28
2018-05-28T11:36:39.798Z,31.30
2018-05-28T11:39:07.422Z,31.31
2018-05-28T11:41:35.091Z,31.33
2018-05-28T11:44:02.720Z,31.36
2018-05-28T11:46:30.403Z,31.39
2018-05-28T11:48:58.003Z,31.42
2018-05-28T11:51:25.755Z,31.46
2018-05-28T11:53:53.382Z,31.51
2018-05-28T11:56:21.094Z,31.56
2018-05-28T11:58:48.758Z,31.61
2018-05-28T12:01:16.416Z,31.69
2018-05-28T12:03:44.087Z,31.76
2018-05-28T12:06:11.706Z,31.82
2018-05-28T12:08:39.342Z,31.85
2018-05-28T12:11:07.070Z,31.89
2018-05-28T12:13:34.730Z,31.91
2018-05-28T12:16:02.424Z,31.95
2018-05-28T12:18:30.011Z,32.00
2018-05-28T12:20:57.723Z,32.05
2018-05-28T12:23:25.353Z,32.10
2018-05-28T12:25:52.971Z,32.13
2018-05-28T12:28:20.607Z,32.14
2018-05-28T12:30:48.265Z,32.15
2018-05-28T12:33:15.927Z,32.16
2018-05-28T12:35:43.543Z,32.18
2018-05-28T12:38:11.178Z,32.20
2018-05-28T12:40:38.813Z,32.21
2018-05-28T12:43:06.442Z,32.23
2018-05-28T12:45:34.138Z,32.23
2018-05-28T12:48:01.766Z,32.22
2018-05-28T12:50:29.398Z,32.22
2018-05-28T12:52:57.126Z,32.23
2018-05-28T12:55:24.735Z,32.24
2018-05-28T12:57:52.374Z,32.27
2018-05-28T13:00:19.987Z,32.31
2018-05-28T13:02:47.614Z,32.33
2018-05-28T13:05:15.227Z,32.34
2018-05-28T13:07:42.993Z,32.34
2018-05-28T13:10:10.598Z,32.31
2018-05-28T13:12:38.203Z,32.32
2018-05-28T13:15:05.886Z,32.37
2018-05-28T13:17:33.488Z,32.42
2018-05-28T13:20:01.115Z,32.48
2018-05-28T13:22:28.723Z,32.53
2018-05-28T13:24:56.355Z,32.58
2018-05-28T13:27:23.957Z,32.62
2018-05-28T13:29:51.594Z,32.64
2018-05-28T13:32:19.210Z,32.63
2018-05-28T13:34:46.847Z,32.59
2018-05-28T13:37:14.469Z,32.59
2018-05-28T13:39:42.117Z,32.60
2018-05-28T13:42:09.760Z,32.63
2018-05-28T13:44:37.418Z,32.65
2018-05-28T13:47:05.094Z,32.63
2018-05-28T13:49:32.736Z,32.60
2018-05-28T13:52:00.345Z,32.56
2018-05-28T13:54:27.982Z,32.53
2018-05-28T13:56:55.630Z,32.50
2018-05-28T13:59:23.263Z,32.52
2018-05-28T14:01:50.898Z,32.50
2018-05-28T14:04:18.526Z,32.48
2018-05-28T14:06:46.133Z,32.44
2018-05-28T14:09:13.839Z,32.42
2018-05-28T14:11:41.597Z,32.41
2018-05-28T14:14:09.268Z,32.38
2018-05-28T14:16:36.890Z,32.34
2018-05-28T14:19:04.524Z,32.33
2018-05-28T14:21:32.146Z,32.31
2018-05-28T14:23:59.810Z,32.33
2018-05-28T14:26:27.416Z,32.36
2018-05-28T14:28:55.138Z,32.39
2018-05-28T14:31:23.066Z,32.43
2018-05-28T14:33:50.426Z,32.47
2018-05-28T14:36:18.122Z,32.51
2018-05-28T14:38:45.883Z,32.49
2018-05-28T14:41:13.552Z,32.50
2018-05-28T14:43:41.199Z,32.52
2018-05-28T14:46:08.841Z,32.54
2018-05-28T14:48:36.451Z,32.52
2018-05-28T14:51:04.163Z,32.54
2018-05-28T14:53:31.722Z,32.59
2018-05-28T14:55:59.423Z,32.59
2018-05-28T14:58:27.042Z,32.60
2018-05-28T15:00:54.679Z,32.60
2018-05-28T15:03:22.286Z,32.59
2018-05-28T15:05:49.924Z,32.59
2018-05-28T15:08:17.592Z,32.60
2018-05-28T15:10:45.235Z,32.59
2018-05-28T15:13:12.959Z,32.56
2018-05-28T15:15:40.618Z,32.53
2018-05-28T15:18:08.222Z,32.51
2018-05-28T15:20:35.908Z,32.48
2018-05-28T15:23:03.495Z,32.42
2018-05-28T15:25:31.159Z,32.37
2018-05-28T15:27:58.926Z,32.35
2018-05-28T15:30:26.595Z,32.32
2018-05-28T15:32:54.206Z,32.29
2018-05-28T15:35:21.839Z,32.27
2018-05-28T15:37:49.475Z,32.24
2018-05-28T15:40:17.243Z,32.24
2018-05-28T15:42:45.780Z,32.24
2018-05-28T15:45:13.387Z,32.26
2018-05-28T15:47:41.026Z,32.29
2018-05-28T15:50:08.635Z,32.34
2018-05-28T15:52:36.366Z,32.36
2018-05-28T15:55:04.035Z,32.35
2018-05-28T15:57:31.694Z,32.35
2018-05-28T15:59:59.302Z,32.36
2018-05-28T16:02:26.926Z,32.37
2018-05-28T16:04:54.539Z,32.37
2018-05-28T16:07:22.165Z,32.36
2018-05-28T16:09:49.778Z,32.34
2018-05-28T16:12:17.470Z,32.33
2018-05-28T16:14:45.071Z,32.33
2018-05-28T16:17:12.790Z,32.33
2018-05-28T16:19:40.450Z,32.36
2018-05-28T16:22:08.111Z,32.35
2018-05-28T16:24:35.715Z,32.39
2018-05-28T16:27:03.439Z,32.53
2018-05-28T16:29:31.299Z,32.69
2018-05-28T16:31:58.945Z,32.91
2018-05-28T16:34:26.626Z,33.06
2018-05-28T16:36:54.286Z,33.23
2018-05-28T16:39:21.960Z,33.39
2018-05-28T16:41:49.590Z,33.56
2018-05-28T16:44:17.203Z,33.73
2018-05-28T16:46:44.936Z,33.84
2018-05-28T16:49:12.601Z,33.97
2018-05-28T16:51:40.231Z,34.10
2018-05-28T16:54:07.926Z,34.21
2018-05-28T16:56:35.575Z,34.30
2018-05-28T16:59:03.230Z,34.36
2018-05-28T17:01:30.911Z,34.39
2018-05-28T17:03:58.543Z,34.41
2018-05-28T17:06:26.150Z,34.41
2018-05-28T17:08:53.784Z,34.44
2018-05-28T17:11:21.395Z,34.44
2018-05-28T17:13:49.023Z,34.41
2018-05-28T17:16:16.630Z,34.41
2018-05-28T17:18:44.343Z,34.42
2018-05-28T17:21:11.946Z,34.38
2018-05-28T17:23:39.667Z,34.34
2018-05-28T17:26:07.271Z,34.29
2018-05-28T17:28:34.989Z,34.23
2018-05-28T17:31:02.598Z,34.18
2018-05-28T17:33:30.230Z,34.12
2018-05-28T17:35:57.842Z,34.05
2018-05-28T17:38:25.474Z,33.97
2018-05-28T17:40:53.197Z,33.77
2018-05-28T17:43:20.835Z,33.52
2018-05-28T17:45:48.451Z,33.28
2018-05-28T17:48:16.079Z,32.90
2018-05-28T17:50:43.685Z,32.48
2018-05-28T17:53:11.316Z,32.10
2018-05-28T17:55:38.922Z,31.74
2018-05-28T17:58:06.631Z,31.43
2018-05-28T18:00:36.054Z,31.11
2018-05-28T18:03:03.694Z,30.81
2018-05-28T18:05:31.356Z,30.49
2018-05-28T18:07:58.985Z,30.20
2018-05-28T18:10:26.679Z,29.92
2018-05-28T18:12:54.347Z,29.68
2018-05-28T18:15:21.954Z,29.44
2018-05-28T18:17:49.574Z,29.23
2018-05-28T18:20:17.214Z,29.05
2018-05-28T18:22:44.890Z,28.86
2018-05-28T18:25:12.554Z,28.70
2018-05-28T18:27:40.160Z,28.52
2018-05-28T18:30:07.807Z,28.38
2018-05-28T18:32:35.415Z,28.24
2018-05-28T18:35:03.097Z,28.13
2018-05-28T18:37:30.714Z,27.99
2018-05-28T18:39:58.346Z,27.85
2018-05-28T18:42:25.991Z,27.73
2018-05-28T18:44:53.654Z,27.60
2018-05-28T18:47:21.262Z,27.49
2018-05-28T18:49:48.900Z,27.38
2018-05-28T18:52:16.514Z,27.25
2018-05-28T18:54:44.146Z,27.14
2018-05-28T18:57:11.755Z,27.03
2018-05-28T18:59:39.382Z,26.93
2018-05-28T19:02:07.029Z,26.83
2018-05-28T19:04:34.666Z,26.72
2018-05-28T19:07:02.282Z,26.61
2018-05-28T19:09:29.918Z,26.50
2018-05-28T19:11:57.526Z,26.40
2018-05-28T19:14:25.166Z,26.30
2018-05-28T19:16:52.775Z,26.20
2018-05-28T19:19:20.407Z,26.12
2018-05-28T19:21:48.019Z,26.04
2018-05-28T19:24:15.651Z,25.96
2018-05-28T19:26:43.254Z,25.90
2018-05-28T19:29:10.896Z,25.84
2018-05-28T19:31:38.550Z,25.78
2018-05-28T19:34:06.179Z,25.73
2018-05-28T19:36:33.833Z,25.68
2018-05-28T19:39:01.447Z,25.61
2018-05-28T19:41:29.086Z,25.54
2018-05-28T19:43:56.728Z,25.47
2018-05-28T19:46:24.358Z,25.40
2018-05-28T19:48:51.974Z,25.35
2018-05-28T19:51:19.662Z,25.27
2018-05-28T19:53:47.375Z,25.22
2018-05-28T19:56:15.002Z,25.18
2018-05-28T19:58:42.640Z,25.14
2018-05-28T20:01:10.294Z,25.08
2018-05-28T20:03:37.918Z,25.02
2018-05-28T20:06:05.926Z,24.95
2018-05-28T20:08:33.535Z,24.89
2018-05-28T20:11:01.217Z,24.84
2018-05-28T20:13:28.878Z,24.79
2018-05-28T20:15:56.510Z,24.75
2018-05-28T20:18:24.123Z,24.71
2018-05-28T20:20:51.734Z,24.66
2018-05-28T20:23:19.426Z,24.62
2018-05-28T20:25:47.122Z,24.57
2018-05-28T20:28:14.741Z,24.50
2018-05-28T20:30:42.427Z,24.43
2018-05-28T20:33:10.073Z,24.39
2018-05-28T20:35:37.734Z,24.34
2018-05-28T20:38:05.399Z,24.27
2018-05-28T20:40:33.016Z,24.19
2018-05-28T20:43:00.651Z,24.11
2018-05-28T20:45:28.294Z,24.04
2018-05-28T20:47:56.047Z,23.98
2018-05-28T20:50:23.658Z,23.90
2018-05-28T20:52:51.301Z,23.86
2018-05-28T20:55:18.916Z,23.81
2018-05-28T20:57:46.598Z,23.74
2018-05-28T21:00:14.213Z,23.67
2018-05-28T21:02:41.846Z,23.61
2018-05-28T21:05:09.471Z,23.55
2018-05-28T21:07:37.106Z,23.48
2018-05-28T21:10:04.726Z,23.42
2018-05-28T21:12:32.462Z,23.36
2018-05-28T21:15:00.073Z,23.28
2018-05-28T21:17:27.714Z,23.22
2018-05-28T21:19:55.371Z,23.15
2018-05-28T21:22:23.011Z,23.08
2018-05-28T21:24:50.666Z,23.01
2018-05-28T21:27:18.306Z,22.94
2018-05-28T21:29:45.920Z,22.89
2018-05-28T21:32:13.574Z,22.85
2018-05-28T21:34:41.190Z,22.81
2018-05-28T21:37:08.879Z,22.78
2018-05-28T21:39:36.540Z,22.75
2018-05-28T21:42:04.207Z,22.72
2018-05-28T21:44:31.867Z,22.69
2018-05-28T21:46:59.486Z,22.66
2018-05-28T21:49:27.190Z,22.63
2018-05-28T21:51:54.849Z,22.61
2018-05-28T21:54:22.482Z,22.58
2018-05-28T21:56:50.098Z,22.53
2018-05-28T21:59:17.846Z,22.51
2018-05-28T22:01:45.471Z,22.49
2018-05-28T22:04:13.118Z,22.46
2018-05-28T22:06:40.737Z,22.43
2018-05-28T22:09:08.375Z,22.40
2018-05-28T22:11:35.986Z,22.36
2018-05-28T22:14:03.632Z,22.31
2018-05-28T22:16:31.250Z,22.25
2018-05-28T22:18:58.887Z,22.19
2018-05-28T22:21:26.501Z,22.14
2018-05-28T22:23:54.140Z,22.08
2018-05-28T22:26:21.763Z,22.01
2018-05-28T22:28:49.405Z,21.95
2018-05-28T22:31:17.042Z,21.92
2018-05-28T22:33:44.683Z,21.86
2018-05-28T22:36:12.297Z,21.82
2018-05-28T22:38:39.926Z,21.78
2018-05-28T22:41:07.591Z,21.74
2018-05-28T22:43:35.250Z,21.70
2018-05-28T22:46:02.917Z,21.66
2018-05-28T22:48:30.538Z,21.63
2018-05-28T22:50:58.181Z,21.59
2018-05-28T22:53:25.798Z,21.57
2018-05-28T22:55:53.440Z,21.55
2018-05-28T22:58:21.055Z,21.53
2018-05-28T23:00:48.691Z,21.49
2018-05-28T23:03:16.306Z,21.44
2018-05-28T23:05:43.943Z,21.40
2018-05-28T23:08:11.567Z,21.34
2018-05-28T23:10:39.227Z,21.29
2018-05-28T23:13:06.886Z,21.25
2018-05-28T23:15:34.555Z,21.21
2018-05-28T23:18:02.170Z,21.17
2018-05-28T23:20:29.874Z,21.10
2018-05-28T23:22:57.538Z,21.04
2018-05-28T23:25:25.202Z,20.98
2018-05-28T23:27:52.811Z,20.93
2018-05-28T23:30:20.449Z,20.88
2018-05-28T23:32:48.078Z,20.82
2018-05-28T23:35:15.715Z,20.79
2018-05-28T23:37:43.330Z,20.74
2018-05-28T23:40:11.070Z,20.71
2018-05-28T23:42:38.686Z,20.67
2018-05-28T23:45:06.394Z,20.65
2018-05-28T23:47:34.566Z,20.62
2018-05-28T23:50:02.207Z,20.60
2018-05-28T23:52:29.834Z,20.60
2018-05-28T23:54:57.475Z,20.61
2018-05-28T23:57:25.118Z,20.60
2018-05-28T23:59:52.778Z,20.58
